createdAt,value
2023-04-18T00:01:43.446Z,24.75
2023-04-18T00:04:28.749Z,30.25
2023-04-18T00:07:10.646Z,27.95
2023-04-18T00:10:00.315Z,32.33
2023-04-18T00:12:40.762Z,27.27
2023-04-18T00:15:11.281Z,28.65
2023-04-18T00:17:44.978Z,31.98
2023-04-18T00:20:27.346Z,28.10
2023-04-18T00:23:01.051Z,27.10
2023-04-18T00:25:35.918Z,29.77
2023-04-18T00:28:23.951Z,26.10
2023-04-18T00:30:59.519Z,30.85
2023-04-18T00:33:37.588Z,30.42
2023-04-18T00:36:12.712Z,24.08
2023-04-18T00:38:49.391Z,30.58
2023-04-18T00:41:28.760Z,28.23
2023-04-18T00:44:14.224Z,29.00
2023-04-18T00:46:44.608Z,25.25
2023-04-18T00:49:18.634Z,25.48
2023-04-18T00:51:51.017Z,29.08
2023-04-18T00:56:57.297Z,21.50
2023-04-18T00:59:52.928Z,28.33
2023-04-18T01:02:23.574Z,26.48
2023-04-18T01:05:09.432Z,28.90
2023-04-18T01:07:53.880Z,31.15
2023-04-18T01:10:28.730Z,28.85
2023-04-18T01:13:23.414Z,27.33
2023-04-18T01:18:45.714Z,28.48
2023-04-18T01:21:28.888Z,26.25
2023-04-18T01:24:08.948Z,27.98
2023-04-18T01:26:39.043Z,25.33
2023-04-18T01:29:08.521Z,27.17
2023-04-18T01:31:44.485Z,25.00
2023-04-18T01:34:19.682Z,30.38
2023-04-18T01:36:54.914Z,25.85
2023-04-18T01:39:25.104Z,31.38
2023-04-18T01:42:27.196Z,29.85
2023-04-18T01:45:11.180Z,28.55
2023-04-18T01:47:44.419Z,27.25
2023-04-18T01:50:15.837Z,29.83
2023-04-18T01:52:51.658Z,31.43
2023-04-18T01:55:23.073Z,35.58
2023-04-18T01:57:55.516Z,31.57
2023-04-18T02:00:31.961Z,30.75
2023-04-18T02:03:05.506Z,30.67
2023-04-18T02:05:32.902Z,34.50
2023-04-18T02:08:16.809Z,29.70
2023-04-18T02:10:46.696Z,28.92
2023-04-18T02:13:27.198Z,35.67
2023-04-18T02:15:53.981Z,27.13
2023-04-18T02:18:37.786Z,30.05
2023-04-18T02:21:11.620Z,27.42
2023-04-18T02:23:39.085Z,28.20
2023-04-18T02:26:09.137Z,32.45
2023-04-18T02:28:41.509Z,28.92
2023-04-18T02:33:55.571Z,28.50
2023-04-18T02:36:33.624Z,26.83
2023-04-18T02:39:28.089Z,26.73
2023-04-18T02:41:59.507Z,31.92
2023-04-18T02:44:34.654Z,24.23
2023-04-18T02:47:04.445Z,31.65
2023-04-18T02:49:37.255Z,29.13
2023-04-18T02:52:22.184Z,29.25
2023-04-18T02:54:53.916Z,29.10
2023-04-18T02:57:28.256Z,27.33
2023-04-18T03:00:09.254Z,27.30
2023-04-18T03:02:44.118Z,24.00
2023-04-18T03:05:45.217Z,26.88
2023-04-18T03:08:15.237Z,29.25
2023-04-18T03:10:59.493Z,29.20
2023-04-18T03:13:37.819Z,27.65
2023-04-18T03:16:08.776Z,28.67
2023-04-18T03:18:42.686Z,33.15
2023-04-18T03:21:21.284Z,26.80
2023-04-18T03:23:51.775Z,24.25
2023-04-18T03:26:19.715Z,26.45
2023-04-18T03:28:49.284Z,24.98
2023-04-18T03:31:20.423Z,28.60
2023-04-18T03:34:01.486Z,26.48
2023-04-18T03:36:33.008Z,23.10
2023-04-18T03:39:08.582Z,25.53
2023-04-18T03:41:50.100Z,26.38
2023-04-18T03:44:31.396Z,26.98
2023-04-18T03:47:03.308Z,26.35
2023-04-18T03:49:33.208Z,27.95
2023-04-18T03:52:04.110Z,24.85
2023-04-18T03:54:31.607Z,23.67
2023-04-18T03:57:12.152Z,24.25
2023-04-18T04:00:06.199Z,30.15
2023-04-18T04:02:33.872Z,23.15
2023-04-18T04:05:12.449Z,25.85
2023-04-18T04:08:00.944Z,25.13
2023-04-18T04:10:31.043Z,26.05
2023-04-18T04:13:06.959Z,27.02
2023-04-18T04:15:39.228Z,28.30
2023-04-18T04:18:19.832Z,28.35
2023-04-18T04:20:49.710Z,25.27
2023-04-18T04:23:40.918Z,25.08
2023-04-18T04:26:15.613Z,22.88
2023-04-18T04:28:43.023Z,25.15
2023-04-18T04:31:27.200Z,27.35
2023-04-18T04:33:53.900Z,26.85
2023-04-18T04:36:30.492Z,24.95
2023-04-18T04:39:00.190Z,25.15
2023-04-18T04:41:27.855Z,25.67
2023-04-18T04:43:54.610Z,26.17
2023-04-18T04:49:20.816Z,24.88
2023-04-18T04:51:52.654Z,25.88
2023-04-18T04:54:37.397Z,20.63
2023-04-18T04:57:07.911Z,24.52
2023-04-18T04:59:37.625Z,26.17
2023-04-18T05:02:11.023Z,29.20
2023-04-18T05:04:51.487Z,24.67
2023-04-18T05:07:18.198Z,24.85
2023-04-18T05:09:47.950Z,24.88
2023-04-18T05:12:21.957Z,25.67
2023-04-18T05:15:03.142Z,30.02
2023-04-18T05:17:36.523Z,24.70
2023-04-18T05:20:04.224Z,25.17
2023-04-18T05:22:31.416Z,26.70
2023-04-18T05:24:58.814Z,25.65
2023-04-18T05:27:32.135Z,24.00
2023-04-18T05:30:03.791Z,26.17
2023-04-18T05:32:31.614Z,24.48
2023-04-18T05:34:58.860Z,24.45
2023-04-18T05:37:29.129Z,30.73
2023-04-18T05:40:05.776Z,28.85
2023-04-18T05:42:38.223Z,23.92
2023-04-18T05:45:14.927Z,23.80
2023-04-18T05:47:43.045Z,26.42
2023-04-18T05:50:10.603Z,21.33
2023-04-18T05:52:41.458Z,28.17
2023-04-18T05:55:09.131Z,31.52
2023-04-18T05:57:42.568Z,29.95
2023-04-18T06:00:20.263Z,27.30
2023-04-18T06:02:47.491Z,24.92
2023-04-18T06:05:18.167Z,26.48
2023-04-18T06:07:45.720Z,22.95
2023-04-18T06:10:16.226Z,25.30
2023-04-18T06:12:43.198Z,28.10
2023-04-18T06:15:16.612Z,25.20
2023-04-18T06:17:46.565Z,22.83
2023-04-18T06:20:16.664Z,23.35
2023-04-18T06:22:50.103Z,28.83
2023-04-18T06:25:16.853Z,24.30
2023-04-18T06:27:45.201Z,24.77
2023-04-18T06:30:15.136Z,26.67
2023-04-18T06:32:42.398Z,23.00
2023-04-18T06:35:09.669Z,25.20
2023-04-18T06:37:36.405Z,24.80
2023-04-18T06:40:04.238Z,23.58
2023-04-18T06:42:36.811Z,22.90
2023-04-18T06:45:04.451Z,26.80
2023-04-18T06:47:39.857Z,24.00
2023-04-18T06:50:09.928Z,22.98
2023-04-18T06:52:40.870Z,22.83
2023-04-18T06:55:11.894Z,22.50
2023-04-18T06:57:42.705Z,24.42
2023-04-18T07:00:10.553Z,21.88
2023-04-18T07:02:41.654Z,26.88
2023-04-18T07:05:08.758Z,20.55
2023-04-18T07:07:40.002Z,24.63
2023-04-18T07:10:13.055Z,20.52
2023-04-18T07:12:40.264Z,22.77
2023-04-18T07:15:11.001Z,19.30
2023-04-18T07:17:43.046Z,21.27
2023-04-18T07:20:12.302Z,20.42
2023-04-18T07:22:44.450Z,18.42
2023-04-18T07:25:19.362Z,19.63
2023-04-18T07:27:46.725Z,24.77
2023-04-18T07:30:13.924Z,20.23
2023-04-18T07:32:40.551Z,22.65
2023-04-18T07:35:10.122Z,18.67
2023-04-18T07:37:36.936Z,21.73
2023-04-18T07:40:05.080Z,20.02
2023-04-18T07:42:32.048Z,24.48
2023-04-18T07:44:59.608Z,16.85
2023-04-18T07:47:29.975Z,18.92
2023-04-18T07:50:00.911Z,21.35
2023-04-18T07:52:27.652Z,19.73
2023-04-18T07:54:54.249Z,19.70
2023-04-18T07:57:21.128Z,16.52
2023-04-18T07:59:47.989Z,18.42
2023-04-18T08:02:21.124Z,23.13
2023-04-18T08:04:52.493Z,19.65
2023-04-18T08:07:19.219Z,19.95
2023-04-18T08:09:45.954Z,19.48
2023-04-18T08:12:15.748Z,16.48
2023-04-18T08:14:42.701Z,19.77
2023-04-18T08:17:09.582Z,17.70
2023-04-18T08:19:41.957Z,19.02
2023-04-18T08:22:12.882Z,22.52
2023-04-18T08:24:39.710Z,19.48
2023-04-18T08:27:07.293Z,22.70
2023-04-18T08:29:37.224Z,19.73
2023-04-18T08:32:07.617Z,19.80
2023-04-18T08:34:38.200Z,15.68
2023-04-18T08:37:11.169Z,19.73
2023-04-18T08:39:41.115Z,18.48
2023-04-18T08:42:10.538Z,20.52
2023-04-18T08:44:37.683Z,24.27
2023-04-18T08:47:07.521Z,19.83
2023-04-18T08:49:36.810Z,19.48
2023-04-18T08:52:16.670Z,23.73
2023-04-18T08:54:45.465Z,22.38
2023-04-18T08:57:23.803Z,18.27
2023-04-18T08:59:51.112Z,20.58
2023-04-18T09:02:19.576Z,21.95
2023-04-18T09:04:49.205Z,23.23
2023-04-18T09:07:17.440Z,19.42
2023-04-18T09:09:50.093Z,19.73
2023-04-18T09:12:19.593Z,19.70
2023-04-18T09:14:47.187Z,17.85
2023-04-18T09:17:22.001Z,21.73
2023-04-18T09:19:50.513Z,19.55
2023-04-18T09:22:18.398Z,20.45
2023-04-18T09:24:57.910Z,28.42
2023-04-18T09:27:24.738Z,19.98
2023-04-18T09:29:55.848Z,21.35
2023-04-18T09:32:27.224Z,25.85
2023-04-18T09:34:58.307Z,27.17
2023-04-18T09:37:26.373Z,21.13
2023-04-18T09:39:53.441Z,16.95
2023-04-18T09:42:21.291Z,19.40
2023-04-18T09:45:09.395Z,18.38
2023-04-18T09:47:37.420Z,20.40
2023-04-18T09:50:05.822Z,22.73
2023-04-18T09:52:35.368Z,31.25
2023-04-18T09:55:04.844Z,18.83
2023-04-18T09:57:35.341Z,23.67
2023-04-18T10:00:08.883Z,23.85
2023-04-18T10:02:47.347Z,19.42
2023-04-18T10:05:15.589Z,19.08
2023-04-18T10:07:45.652Z,21.33
2023-04-18T10:10:13.034Z,17.95
2023-04-18T10:12:41.408Z,16.05
2023-04-18T10:15:09.815Z,16.52
2023-04-18T10:18:15.560Z,18.85
2023-04-18T10:20:42.675Z,21.55
2023-04-18T10:23:43.546Z,18.10
2023-04-18T10:26:11.174Z,22.10
2023-04-18T10:28:58.259Z,18.05
2023-04-18T10:31:29.629Z,18.00
2023-04-18T10:36:30.710Z,18.80
2023-04-18T10:39:08.970Z,19.88
2023-04-18T10:41:49.487Z,21.20
2023-04-18T10:44:18.997Z,22.73
2023-04-18T10:46:48.927Z,18.85
2023-04-18T10:49:17.753Z,18.10
2023-04-18T10:51:45.374Z,17.00
2023-04-18T10:54:18.721Z,19.15
2023-04-18T10:56:58.513Z,15.52
2023-04-18T10:59:30.345Z,18.10
2023-04-18T11:02:04.252Z,18.40
2023-04-18T11:04:35.602Z,19.33
2023-04-18T11:07:02.834Z,23.60
2023-04-18T11:09:29.639Z,18.48
2023-04-18T11:12:06.602Z,17.02
2023-04-18T11:14:45.372Z,19.13
2023-04-18T11:17:18.330Z,26.60
2023-04-18T11:19:51.876Z,22.73
2023-04-18T11:22:19.285Z,15.68
2023-04-18T11:24:48.975Z,15.98
2023-04-18T11:27:16.143Z,26.48
2023-04-18T11:29:43.042Z,19.20
2023-04-18T11:32:10.266Z,20.00
2023-04-18T11:34:37.279Z,16.67
2023-04-18T11:37:08.331Z,21.90
2023-04-18T11:39:36.575Z,18.67
2023-04-18T11:42:03.482Z,18.45
2023-04-18T11:44:35.569Z,18.48
2023-04-18T11:47:21.869Z,14.48
2023-04-18T11:49:48.673Z,15.68
2023-04-18T11:52:17.774Z,21.15
2023-04-18T11:54:48.113Z,16.95
2023-04-18T11:57:23.932Z,15.77
2023-04-18T11:59:57.730Z,16.48
2023-04-18T12:02:39.326Z,18.70
2023-04-18T12:05:09.615Z,16.20
2023-04-18T12:07:41.969Z,17.63
2023-04-18T12:12:51.043Z,16.30
2023-04-18T12:15:19.285Z,17.40
2023-04-18T12:17:51.094Z,16.48
2023-04-18T12:20:21.938Z,19.67
2023-04-18T12:22:56.276Z,15.90
2023-04-18T12:25:29.292Z,15.13
2023-04-18T12:28:01.868Z,13.90
2023-04-18T12:30:31.224Z,22.42
2023-04-18T12:33:07.345Z,17.27
2023-04-18T12:35:34.773Z,21.52
2023-04-18T12:38:07.032Z,16.90
2023-04-18T12:40:43.818Z,16.90
2023-04-18T12:43:12.491Z,14.85
2023-04-18T12:45:42.847Z,17.58
2023-04-18T12:48:10.028Z,15.07
2023-04-18T12:50:36.829Z,16.83
2023-04-18T12:53:06.488Z,18.90
2023-04-18T12:55:39.865Z,18.73
2023-04-18T12:58:06.955Z,15.43
2023-04-18T13:00:35.610Z,21.67
2023-04-18T13:03:05.394Z,19.02
2023-04-18T13:05:42.916Z,21.80
2023-04-18T13:08:16.820Z,21.13
2023-04-18T13:10:48.121Z,16.67
2023-04-18T13:13:15.217Z,17.88
2023-04-18T13:15:42.866Z,18.80
2023-04-18T13:18:14.703Z,17.15
2023-04-18T13:20:41.705Z,21.00
2023-04-18T13:23:18.881Z,18.70
2023-04-18T13:25:51.024Z,22.45
2023-04-18T13:30:49.372Z,21.23
2023-04-18T13:33:25.856Z,21.38
2023-04-18T13:35:54.047Z,20.45
2023-04-18T13:38:21.026Z,16.60
2023-04-18T13:40:58.080Z,19.25
2023-04-18T13:43:40.000Z,20.67
2023-04-18T13:46:07.198Z,16.80
2023-04-18T13:48:40.211Z,17.67
2023-04-18T13:51:07.396Z,20.90
2023-04-18T13:53:38.815Z,19.73
2023-04-18T13:56:05.995Z,16.45
2023-04-18T13:58:32.571Z,20.02
2023-04-18T14:00:59.146Z,21.42
2023-04-18T14:03:26.532Z,20.58
2023-04-18T14:05:53.258Z,21.85
2023-04-18T14:08:19.912Z,24.33
2023-04-18T14:10:46.522Z,18.17
2023-04-18T14:13:13.096Z,17.67
2023-04-18T14:15:39.776Z,19.77
2023-04-18T14:18:06.537Z,17.85
2023-04-18T14:20:34.815Z,17.98
2023-04-18T14:23:01.993Z,19.40
2023-04-18T14:25:30.357Z,18.90
2023-04-18T14:28:09.652Z,16.52
2023-04-18T14:30:37.239Z,14.95
2023-04-18T14:33:04.208Z,17.30
2023-04-18T14:35:31.609Z,16.55
2023-04-18T14:37:58.290Z,18.52
2023-04-18T14:40:24.938Z,17.95
2023-04-18T14:42:51.490Z,12.60
2023-04-18T14:45:18.226Z,13.75
2023-04-18T14:47:44.903Z,16.50
2023-04-18T14:50:15.412Z,18.58
2023-04-18T14:52:42.314Z,14.20
2023-04-18T14:55:09.825Z,19.67
2023-04-18T14:57:37.413Z,14.63
2023-04-18T15:00:07.556Z,14.00
2023-04-18T15:02:34.501Z,14.40
2023-04-18T15:05:01.281Z,14.05
2023-04-18T15:07:27.913Z,16.42
2023-04-18T15:09:54.625Z,13.77
2023-04-18T15:12:21.237Z,17.90
2023-04-18T15:14:47.794Z,16.13
2023-04-18T15:17:14.396Z,17.13
2023-04-18T15:19:41.088Z,16.70
2023-04-18T15:22:07.839Z,15.35
2023-04-18T15:24:34.608Z,14.85
2023-04-18T15:27:01.458Z,16.25
2023-04-18T15:29:28.106Z,12.20
2023-04-18T15:31:55.249Z,16.00
2023-04-18T15:34:21.919Z,17.00
2023-04-18T15:36:51.533Z,15.77
2023-04-18T15:39:23.679Z,14.93
2023-04-18T15:44:23.388Z,13.73
2023-04-18T15:46:50.790Z,11.85
2023-04-18T15:49:17.371Z,10.50
2023-04-18T15:51:44.156Z,12.52
2023-04-18T15:54:11.050Z,13.38
2023-04-18T15:56:37.709Z,15.60
2023-04-18T15:59:06.102Z,13.90
2023-04-18T16:01:33.241Z,17.95
2023-04-18T16:03:59.977Z,13.52
2023-04-18T16:06:27.379Z,9.57
2023-04-18T16:08:54.005Z,11.85
2023-04-18T16:11:21.745Z,11.55
2023-04-18T16:13:48.458Z,10.38
2023-04-18T16:16:15.200Z,11.63
2023-04-18T16:18:41.804Z,8.27
2023-04-18T16:21:08.439Z,9.88
2023-04-18T16:23:35.072Z,11.98
2023-04-18T16:26:01.651Z,18.65
2023-04-18T16:28:29.234Z,12.80
2023-04-18T16:30:55.995Z,10.05
2023-04-18T16:33:25.962Z,10.45
2023-04-18T16:35:53.158Z,13.10
2023-04-18T16:38:23.402Z,10.40
2023-04-18T16:40:50.084Z,8.88
2023-04-18T16:43:16.747Z,8.55
2023-04-18T16:45:43.354Z,6.47
2023-04-18T16:48:10.162Z,5.78
2023-04-18T16:50:36.813Z,6.35
2023-04-18T16:53:03.476Z,9.45
2023-04-18T16:55:30.096Z,11.98
2023-04-18T16:57:56.668Z,8.18
2023-04-18T17:00:23.399Z,8.15
2023-04-18T17:02:50.902Z,8.27
2023-04-18T17:05:18.739Z,8.05
2023-04-18T17:07:46.077Z,7.38
2023-04-18T17:10:12.793Z,4.43
2023-04-18T17:12:39.510Z,6.22
2023-04-18T17:15:07.022Z,5.70
2023-04-18T17:17:34.800Z,7.00
2023-04-18T17:20:01.539Z,5.40
2023-04-18T17:22:32.335Z,5.30
2023-04-18T17:24:58.937Z,7.60
2023-04-18T17:27:28.903Z,9.90
2023-04-18T17:29:55.750Z,7.53
2023-04-18T17:32:23.217Z,8.27
2023-04-18T17:34:49.882Z,9.13
2023-04-18T17:37:17.186Z,5.20
2023-04-18T17:39:44.107Z,4.55
2023-04-18T17:42:11.009Z,6.25
2023-04-18T17:44:39.843Z,6.57
2023-04-18T17:47:07.069Z,10.48
2023-04-18T17:49:35.105Z,9.73
2023-04-18T17:52:02.450Z,5.13
2023-04-18T17:54:29.046Z,10.35
2023-04-18T17:56:56.013Z,12.60
2023-04-18T17:59:22.668Z,7.18
2023-04-18T18:01:49.785Z,7.40
2023-04-18T18:04:16.793Z,9.65
2023-04-18T18:06:54.673Z,7.43
2023-04-18T18:09:21.310Z,10.07
2023-04-18T18:11:47.908Z,10.98
2023-04-18T18:14:15.527Z,5.45
2023-04-18T18:16:42.628Z,12.00
2023-04-18T18:19:09.318Z,11.52
2023-04-18T18:21:36.528Z,11.48
2023-04-18T18:24:03.301Z,8.50
2023-04-18T18:26:32.123Z,8.52
2023-04-18T18:28:59.028Z,9.93
2023-04-18T18:31:25.803Z,8.80
2023-04-18T18:33:52.404Z,9.13
2023-04-18T18:36:19.116Z,7.53
2023-04-18T18:38:45.771Z,6.80
2023-04-18T18:41:12.437Z,7.93
2023-04-18T18:43:39.116Z,6.47
2023-04-18T18:46:05.747Z,11.10
2023-04-18T18:48:32.839Z,7.40
2023-04-18T18:50:59.487Z,8.77
2023-04-18T18:53:26.281Z,9.40
2023-04-18T18:55:53.175Z,7.25
2023-04-18T18:58:20.155Z,10.27
2023-04-18T19:00:46.974Z,6.85
2023-04-18T19:03:13.915Z,9.93
2023-04-18T19:05:40.692Z,7.05
2023-04-18T19:08:07.610Z,6.93
2023-04-18T19:10:34.464Z,12.10
2023-04-18T19:13:01.401Z,21.08
2023-04-18T19:15:28.224Z,53.25
2023-04-18T19:17:56.205Z,10.80
2023-04-18T19:20:23.678Z,9.75
2023-04-18T19:22:50.408Z,19.00
2023-04-18T19:25:17.188Z,13.45
2023-04-18T19:27:44.765Z,11.38
2023-04-18T19:30:12.030Z,7.85
2023-04-18T19:32:38.839Z,9.30
2023-04-18T19:35:05.857Z,8.02
2023-04-18T19:37:32.431Z,12.85
2023-04-18T19:39:59.031Z,9.98
2023-04-18T19:42:25.622Z,10.68
2023-04-18T19:44:54.640Z,9.60
2023-04-18T19:47:29.048Z,10.63
2023-04-18T19:50:01.726Z,13.10
2023-04-18T19:52:28.548Z,12.65
2023-04-18T19:57:51.313Z,20.70
2023-04-18T20:00:26.272Z,10.57
2023-04-18T20:02:55.047Z,10.05
2023-04-18T20:05:25.011Z,11.57
2023-04-18T20:07:54.302Z,13.35
2023-04-18T20:10:31.738Z,12.00
2023-04-18T20:13:01.531Z,15.38
2023-04-18T20:15:30.745Z,9.95
2023-04-18T20:18:00.665Z,18.50
2023-04-18T20:20:29.051Z,13.07
2023-04-18T20:22:58.460Z,11.88
2023-04-18T20:25:34.283Z,10.85
2023-04-18T20:28:03.794Z,9.40
2023-04-18T20:30:41.864Z,11.77
2023-04-18T20:33:15.290Z,9.90
2023-04-18T20:35:44.699Z,12.10
2023-04-18T20:38:15.254Z,11.98
2023-04-18T20:40:48.652Z,15.02
2023-04-18T20:43:19.428Z,14.18
2023-04-18T20:45:51.702Z,9.52
2023-04-18T20:50:51.520Z,11.18
2023-04-18T20:53:25.241Z,12.10
2023-04-18T20:55:55.008Z,10.65
2023-04-18T20:58:27.174Z,15.05
2023-04-18T21:00:53.968Z,14.18
2023-04-18T21:03:23.428Z,12.88
2023-04-18T21:05:52.828Z,9.95
2023-04-18T21:08:22.100Z,13.23
2023-04-18T21:10:51.940Z,14.93
2023-04-18T21:13:21.680Z,13.25
2023-04-18T21:15:54.085Z,12.40
2023-04-18T21:18:26.065Z,15.10
2023-04-18T21:21:01.611Z,12.43
2023-04-18T21:23:35.832Z,17.10
2023-04-18T21:26:02.588Z,13.07
2023-04-18T21:28:32.407Z,15.18
2023-04-18T21:31:02.345Z,14.55
2023-04-18T21:33:31.645Z,15.35
2023-04-18T21:35:58.300Z,18.35
2023-04-18T21:38:28.432Z,15.70
2023-04-18T21:41:00.871Z,13.73
2023-04-18T21:43:30.149Z,14.52
2023-04-18T21:45:59.126Z,17.92
2023-04-18T21:48:26.063Z,15.35
2023-04-18T21:50:57.264Z,15.18
2023-04-18T21:53:24.160Z,20.02
2023-04-18T21:55:50.830Z,21.55
2023-04-18T21:58:19.398Z,18.52
2023-04-18T22:00:53.988Z,18.98
2023-04-18T22:03:26.638Z,32.97
2023-04-18T22:05:53.543Z,22.20
2023-04-18T22:08:20.428Z,18.73
2023-04-18T22:10:53.242Z,17.23
2023-04-18T22:13:28.582Z,16.05
2023-04-18T22:16:01.699Z,17.35
2023-04-18T22:18:37.773Z,24.08
2023-04-18T22:21:07.264Z,18.70
2023-04-18T22:23:36.056Z,21.08
2023-04-18T22:26:06.765Z,16.40
2023-04-18T22:28:38.193Z,20.90
2023-04-18T22:31:07.045Z,20.55
2023-04-18T22:33:36.855Z,17.58
2023-04-18T22:36:05.527Z,26.40
2023-04-18T22:38:34.668Z,21.13
2023-04-18T22:41:03.916Z,18.77
2023-04-18T22:43:32.918Z,21.08
2023-04-18T22:46:05.181Z,18.40
2023-04-18T22:48:34.988Z,16.05
2023-04-18T22:51:07.356Z,15.75
2023-04-18T22:56:07.877Z,23.17
2023-04-18T22:58:36.390Z,14.43
2023-04-18T23:01:05.389Z,16.73
2023-04-18T23:03:37.334Z,13.23
2023-04-18T23:06:06.590Z,18.00
2023-04-18T23:08:33.281Z,18.02
2023-04-18T23:11:01.220Z,14.90
2023-04-18T23:13:30.120Z,15.27
2023-04-18T23:16:00.010Z,10.60
2023-04-18T23:18:32.371Z,22.95
2023-04-18T23:23:28.165Z,12.95
2023-04-18T23:25:55.137Z,12.80
2023-04-18T23:28:23.760Z,10.25
2023-04-18T23:30:57.648Z,9.80
2023-04-18T23:33:27.746Z,14.05
2023-04-18T23:35:57.715Z,11.95
2023-04-18T23:38:29.987Z,14.25
2023-04-18T23:40:56.690Z,13.52
2023-04-18T23:43:27.426Z,13.35
2023-04-18T23:45:55.285Z,14.45
2023-04-18T23:48:25.071Z,16.13
2023-04-18T23:50:54.537Z,14.63
2023-04-18T23:53:24.675Z,10.18
2023-04-18T23:55:56.246Z,18.40
2023-04-18T23:58:24.186Z,13.82
